sensor_id;sensor_type;location;lat;lon;timestamp;temperature;humidity
18225;DHT22;9237;48.590;8.854;2023-10-08T00:01:02;10.20;99.90
18225;DHT22;9237;48.590;8.854;2023-10-08T00:03:31;10.20;99.90
18225;DHT22;9237;48.590;8.854;2023-10-08T00:06:02;10.10;99.90
18225;DHT22;9237;48.590;8.854;2023-10-08T00:08:32;10.10;99.90
18225;DHT22;9237;48.590;8.854;2023-10-08T00:10:58;10.20;99.90
18225;DHT22;9237;48.590;8.854;2023-10-08T00:13:31;10.30;99.90
18225;DHT22;9237;48.590;8.854;2023-10-08T00:16:03;10.30;99.90
18225;DHT22;9237;48.590;8.854;2023-10-08T00:18:34;10.50;99.90
18225;DHT22;9237;48.590;8.854;2023-10-08T00:21:02;10.50;99.90
18225;DHT22;9237;48.590;8.854;2023-10-08T00:23:42;10.40;99.90
18225;DHT22;9237;48.590;8.854;2023-10-08T00:26:14;10.40;99.90
18225;DHT22;9237;48.590;8.854;2023-10-08T00:28:44;10.60;99.90
18225;DHT22;9237;48.590;8.854;2023-10-08T00:31:14;10.50;99.90
18225;DHT22;9237;48.590;8.854;2023-10-08T00:33:43;10.40;99.90
18225;DHT22;9237;48.590;8.854;2023-10-08T00:36:10;10.30;99.90
18225;DHT22;9237;48.590;8.854;2023-10-08T00:38:44;10.10;99.90
18225;DHT22;9237;48.590;8.854;2023-10-08T00:41:13;10.00;99.90
18225;DHT22;9237;48.590;8.854;2023-10-08T00:43:41;9.90;99.90
18225;DHT22;9237;48.590;8.854;2023-10-08T00:46:10;9.90;99.90
18225;DHT22;9237;48.590;8.854;2023-10-08T00:48:47;9.90;99.90
18225;DHT22;9237;48.590;8.854;2023-10-08T00:51:14;9.80;99.90
18225;DHT22;9237;48.590;8.854;2023-10-08T00:53:54;9.70;99.90
18225;DHT22;9237;48.590;8.854;2023-10-08T00:56:24;9.70;99.90
18225;DHT22;9237;48.590;8.854;2023-10-08T00:58:51;9.70;99.90
18225;DHT22;9237;48.590;8.854;2023-10-08T01:01:19;9.80;99.90
18225;DHT22;9237;48.590;8.854;2023-10-08T01:03:49;9.70;99.90
18225;DHT22;9237;48.590;8.854;2023-10-08T01:06:17;9.80;99.90
18225;DHT22;9237;48.590;8.854;2023-10-08T01:08:46;9.70;99.90
18225;DHT22;9237;48.590;8.854;2023-10-08T01:11:21;9.60;99.90
18225;DHT22;9237;48.590;8.854;2023-10-08T01:13:57;9.60;99.90
18225;DHT22;9237;48.590;8.854;2023-10-08T01:16:24;9.60;99.90
18225;DHT22;9237;48.590;8.854;2023-10-08T01:18:53;9.50;99.90
18225;DHT22;9237;48.590;8.854;2023-10-08T01:21:20;9.50;99.90
18225;DHT22;9237;48.590;8.854;2023-10-08T01:24:02;9.40;99.90
18225;DHT22;9237;48.590;8.854;2023-10-08T01:26:31;9.50;99.90
18225;DHT22;9237;48.590;8.854;2023-10-08T01:28:59;9.50;99.90
18225;DHT22;9237;48.590;8.854;2023-10-08T01:31:29;9.50;99.90
18225;DHT22;9237;48.590;8.854;2023-10-08T01:33:57;9.50;99.90
18225;DHT22;9237;48.590;8.854;2023-10-08T01:36:24;9.50;99.90
18225;DHT22;9237;48.590;8.854;2023-10-08T01:38:51;9.50;99.90
18225;DHT22;9237;48.590;8.854;2023-10-08T01:41:21;9.50;99.90
18225;DHT22;9237;48.590;8.854;2023-10-08T01:43:56;9.90;99.90
18225;DHT22;9237;48.590;8.854;2023-10-08T01:46:24;9.50;99.90
18225;DHT22;9237;48.590;8.854;2023-10-08T01:48:52;9.50;99.90
18225;DHT22;9237;48.590;8.854;2023-10-08T01:51:29;9.50;99.90
18225;DHT22;9237;48.590;8.854;2023-10-08T01:54:04;9.50;99.90
18225;DHT22;9237;48.590;8.854;2023-10-08T01:56:39;9.50;99.90
18225;DHT22;9237;48.590;8.854;2023-10-08T01:59:08;9.40;99.90
18225;DHT22;9237;48.590;8.854;2023-10-08T02:01:35;9.40;99.90
18225;DHT22;9237;48.590;8.854;2023-10-08T02:04:04;9.30;99.90
18225;DHT22;9237;48.590;8.854;2023-10-08T02:06:32;9.30;99.90
18225;DHT22;9237;48.590;8.854;2023-10-08T02:08:58;9.30;99.90
18225;DHT22;9237;48.590;8.854;2023-10-08T02:11:31;9.30;99.90
18225;DHT22;9237;48.590;8.854;2023-10-08T02:13:59;9.20;99.90
18225;DHT22;9237;48.590;8.854;2023-10-08T02:16:27;9.10;99.90
18225;DHT22;9237;48.590;8.854;2023-10-08T02:18:54;9.10;99.90
18225;DHT22;9237;48.590;8.854;2023-10-08T02:21:20;9.10;99.90
18225;DHT22;9237;48.590;8.854;2023-10-08T02:23:47;9.00;99.90
18225;DHT22;9237;48.590;8.854;2023-10-08T02:26:14;9.00;99.90
18225;DHT22;9237;48.590;8.854;2023-10-08T02:28:41;9.00;99.90
18225;DHT22;9237;48.590;8.854;2023-10-08T02:31:09;8.90;99.90
18225;DHT22;9237;48.590;8.854;2023-10-08T02:33:36;8.90;99.90
18225;DHT22;9237;48.590;8.854;2023-10-08T02:36:03;8.90;99.90
18225;DHT22;9237;48.590;8.854;2023-10-08T02:38:30;8.90;99.90
18225;DHT22;9237;48.590;8.854;2023-10-08T02:41:03;8.90;99.90
18225;DHT22;9237;48.590;8.854;2023-10-08T02:43:32;8.80;99.90
18225;DHT22;9237;48.590;8.854;2023-10-08T02:45:59;8.90;99.90
18225;DHT22;9237;48.590;8.854;2023-10-08T02:48:27;8.80;99.90
18225;DHT22;9237;48.590;8.854;2023-10-08T02:50:55;8.80;99.90
18225;DHT22;9237;48.590;8.854;2023-10-08T02:53:32;8.70;99.90
18225;DHT22;9237;48.590;8.854;2023-10-08T02:55:59;8.70;99.90
18225;DHT22;9237;48.590;8.854;2023-10-08T02:58:26;8.60;99.90
18225;DHT22;9237;48.590;8.854;2023-10-08T03:00:53;8.70;99.90
18225;DHT22;9237;48.590;8.854;2023-10-08T03:03:20;8.70;99.90
18225;DHT22;9237;48.590;8.854;2023-10-08T03:05:52;8.70;99.90
18225;DHT22;9237;48.590;8.854;2023-10-08T03:08:22;8.70;99.90
18225;DHT22;9237;48.590;8.854;2023-10-08T03:10:50;8.80;99.90
18225;DHT22;9237;48.590;8.854;2023-10-08T03:13:21;8.70;99.90
18225;DHT22;9237;48.590;8.854;2023-10-08T03:15:48;8.80;99.90
18225;DHT22;9237;48.590;8.854;2023-10-08T03:18:33;8.60;99.90
18225;DHT22;9237;48.590;8.854;2023-10-08T03:21:03;8.70;99.90
18225;DHT22;9237;48.590;8.854;2023-10-08T03:23:30;8.60;99.90
18225;DHT22;9237;48.590;8.854;2023-10-08T03:26:01;8.60;99.90
18225;DHT22;9237;48.590;8.854;2023-10-08T03:28:36;8.70;99.90
18225;DHT22;9237;48.590;8.854;2023-10-08T03:31:04;8.60;99.90
18225;DHT22;9237;48.590;8.854;2023-10-08T03:33:32;8.70;99.90
18225;DHT22;9237;48.590;8.854;2023-10-08T03:36:03;8.80;99.90
18225;DHT22;9237;48.590;8.854;2023-10-08T03:38:39;8.80;99.90
18225;DHT22;9237;48.590;8.854;2023-10-08T03:41:21;8.80;99.90
18225;DHT22;9237;48.590;8.854;2023-10-08T03:43:53;8.90;99.90
18225;DHT22;9237;48.590;8.854;2023-10-08T03:46:28;9.00;99.90
18225;DHT22;9237;48.590;8.854;2023-10-08T03:48:55;9.00;99.90
18225;DHT22;9237;48.590;8.854;2023-10-08T03:51:24;9.00;99.90
18225;DHT22;9237;48.590;8.854;2023-10-08T03:53:53;8.80;99.90
18225;DHT22;9237;48.590;8.854;2023-10-08T03:56:41;8.80;99.90
18225;DHT22;9237;48.590;8.854;2023-10-08T03:59:11;8.60;99.90
18225;DHT22;9237;48.590;8.854;2023-10-08T04:01:40;8.50;99.90
18225;DHT22;9237;48.590;8.854;2023-10-08T04:04:07;8.50;99.90
18225;DHT22;9237;48.590;8.854;2023-10-08T04:06:40;8.50;99.90
18225;DHT22;9237;48.590;8.854;2023-10-08T04:09:14;8.50;99.90
18225;DHT22;9237;48.590;8.854;2023-10-08T04:11:50;8.50;99.90
18225;DHT22;9237;48.590;8.854;2023-10-08T04:14:22;8.40;99.90
18225;DHT22;9237;48.590;8.854;2023-10-08T04:16:49;8.40;99.90
18225;DHT22;9237;48.590;8.854;2023-10-08T04:19:18;8.50;99.90
18225;DHT22;9237;48.590;8.854;2023-10-08T04:21:47;8.60;99.90
18225;DHT22;9237;48.590;8.854;2023-10-08T04:24:21;8.60;99.90
18225;DHT22;9237;48.590;8.854;2023-10-08T04:26:54;8.50;99.90
18225;DHT22;9237;48.590;8.854;2023-10-08T04:29:23;8.40;99.90
18225;DHT22;9237;48.590;8.854;2023-10-08T04:31:50;8.30;99.90
18225;DHT22;9237;48.590;8.854;2023-10-08T04:34:27;8.30;99.90
18225;DHT22;9237;48.590;8.854;2023-10-08T04:36:55;8.20;99.90
18225;DHT22;9237;48.590;8.854;2023-10-08T04:39:26;8.20;99.90
18225;DHT22;9237;48.590;8.854;2023-10-08T04:41:58;8.20;99.90
18225;DHT22;9237;48.590;8.854;2023-10-08T04:44:26;8.20;99.90
18225;DHT22;9237;48.590;8.854;2023-10-08T04:46:57;8.90;99.90
18225;DHT22;9237;48.590;8.854;2023-10-08T04:49:30;8.30;99.90
18225;DHT22;9237;48.590;8.854;2023-10-08T04:52:00;8.40;99.90
18225;DHT22;9237;48.590;8.854;2023-10-08T04:54:31;8.40;99.90
18225;DHT22;9237;48.590;8.854;2023-10-08T04:57:01;8.30;99.90
18225;DHT22;9237;48.590;8.854;2023-10-08T04:59:31;8.30;99.90
18225;DHT22;9237;48.590;8.854;2023-10-08T05:02:02;8.20;99.90
18225;DHT22;9237;48.590;8.854;2023-10-08T05:04:45;8.30;99.90
18225;DHT22;9237;48.590;8.854;2023-10-08T05:07:23;8.30;99.90
18225;DHT22;9237;48.590;8.854;2023-10-08T05:10:04;8.40;99.90
18225;DHT22;9237;48.590;8.854;2023-10-08T05:12:57;8.50;99.90
18225;DHT22;9237;48.590;8.854;2023-10-08T05:15:40;8.70;99.90
18225;DHT22;9237;48.590;8.854;2023-10-08T05:18:15;8.80;99.90
18225;DHT22;9237;48.590;8.854;2023-10-08T05:20:49;8.90;99.90
18225;DHT22;9237;48.590;8.854;2023-10-08T05:23:29;8.80;99.90
18225;DHT22;9237;48.590;8.854;2023-10-08T05:26:13;8.80;99.90
18225;DHT22;9237;48.590;8.854;2023-10-08T05:29:06;8.70;99.90
18225;DHT22;9237;48.590;8.854;2023-10-08T05:31:47;8.60;99.90
18225;DHT22;9237;48.590;8.854;2023-10-08T05:34:24;8.70;99.90
18225;DHT22;9237;48.590;8.854;2023-10-08T05:36:58;8.70;99.90
18225;DHT22;9237;48.590;8.854;2023-10-08T05:39:59;8.70;99.90
18225;DHT22;9237;48.590;8.854;2023-10-08T05:42:38;8.60;99.90
18225;DHT22;9237;48.590;8.854;2023-10-08T05:45:12;8.60;99.90
18225;DHT22;9237;48.590;8.854;2023-10-08T05:47:39;8.70;99.90
18225;DHT22;9237;48.590;8.854;2023-10-08T05:50:17;8.70;99.90
18225;DHT22;9237;48.590;8.854;2023-10-08T05:53:04;8.60;99.90
18225;DHT22;9237;48.590;8.854;2023-10-08T05:55:46;8.60;99.90
18225;DHT22;9237;48.590;8.854;2023-10-08T05:58:26;8.60;99.90
18225;DHT22;9237;48.590;8.854;2023-10-08T06:01:11;8.50;99.90
18225;DHT22;9237;48.590;8.854;2023-10-08T06:03:51;8.60;99.90
18225;DHT22;9237;48.590;8.854;2023-10-08T06:06:33;8.60;99.90
18225;DHT22;9237;48.590;8.854;2023-10-08T06:09:04;8.70;99.90
18225;DHT22;9237;48.590;8.854;2023-10-08T06:11:48;8.80;99.90
18225;DHT22;9237;48.590;8.854;2023-10-08T06:14:35;8.80;99.90
18225;DHT22;9237;48.590;8.854;2023-10-08T06:17:34;8.90;99.90
18225;DHT22;9237;48.590;8.854;2023-10-08T06:20:22;9.10;99.90
18225;DHT22;9237;48.590;8.854;2023-10-08T06:22:51;9.20;99.90
18225;DHT22;9237;48.590;8.854;2023-10-08T06:25:25;9.40;99.90
18225;DHT22;9237;48.590;8.854;2023-10-08T06:27:54;9.60;99.90
18225;DHT22;9237;48.590;8.854;2023-10-08T06:30:23;9.70;99.90
18225;DHT22;9237;48.590;8.854;2023-10-08T06:32:55;9.70;99.90
18225;DHT22;9237;48.590;8.854;2023-10-08T06:35:21;9.80;99.90
18225;DHT22;9237;48.590;8.854;2023-10-08T06:37:52;9.80;99.90
18225;DHT22;9237;48.590;8.854;2023-10-08T06:40:21;10.00;99.90
18225;DHT22;9237;48.590;8.854;2023-10-08T06:43:06;10.10;99.90
18225;DHT22;9237;48.590;8.854;2023-10-08T06:45:40;10.40;99.90
18225;DHT22;9237;48.590;8.854;2023-10-08T06:48:07;10.50;99.90
18225;DHT22;9237;48.590;8.854;2023-10-08T06:50:34;10.70;99.90
18225;DHT22;9237;48.590;8.854;2023-10-08T06:53:02;11.00;99.90
18225;DHT22;9237;48.590;8.854;2023-10-08T06:55:33;11.20;99.90
18225;DHT22;9237;48.590;8.854;2023-10-08T06:58:01;11.40;99.90
18225;DHT22;9237;48.590;8.854;2023-10-08T07:00:32;11.90;99.90
18225;DHT22;9237;48.590;8.854;2023-10-08T07:03:08;12.40;99.90
18225;DHT22;9237;48.590;8.854;2023-10-08T07:05:36;12.80;99.90
18225;DHT22;9237;48.590;8.854;2023-10-08T07:08:07;13.00;99.90
18225;DHT22;9237;48.590;8.854;2023-10-08T07:10:35;13.10;99.90
18225;DHT22;9237;48.590;8.854;2023-10-08T07:13:02;13.10;99.90
18225;DHT22;9237;48.590;8.854;2023-10-08T07:15:31;13.00;99.90
18225;DHT22;9237;48.590;8.854;2023-10-08T07:17:58;13.00;99.90
18225;DHT22;9237;48.590;8.854;2023-10-08T07:20:34;13.20;99.90
18225;DHT22;9237;48.590;8.854;2023-10-08T07:23:05;13.10;99.90
18225;DHT22;9237;48.590;8.854;2023-10-08T07:25:35;13.10;99.90
18225;DHT22;9237;48.590;8.854;2023-10-08T07:28:04;13.20;99.90
18225;DHT22;9237;48.590;8.854;2023-10-08T07:30:37;13.20;99.90
18225;DHT22;9237;48.590;8.854;2023-10-08T07:33:09;13.20;99.90
18225;DHT22;9237;48.590;8.854;2023-10-08T07:35:43;13.30;99.90
18225;DHT22;9237;48.590;8.854;2023-10-08T07:38:17;13.40;99.90
18225;DHT22;9237;48.590;8.854;2023-10-08T07:40:43;13.60;99.90
18225;DHT22;9237;48.590;8.854;2023-10-08T07:43:10;14.00;99.90
18225;DHT22;9237;48.590;8.854;2023-10-08T07:45:40;14.40;99.90
18225;DHT22;9237;48.590;8.854;2023-10-08T07:48:11;14.40;99.90
18225;DHT22;9237;48.590;8.854;2023-10-08T07:50:41;14.70;99.90
18225;DHT22;9237;48.590;8.854;2023-10-08T07:53:08;15.20;99.90
18225;DHT22;9237;48.590;8.854;2023-10-08T07:55:46;15.60;99.90
18225;DHT22;9237;48.590;8.854;2023-10-08T07:58:17;15.70;99.90
18225;DHT22;9237;48.590;8.854;2023-10-08T08:00:46;15.80;99.90
18225;DHT22;9237;48.590;8.854;2023-10-08T08:03:21;15.80;99.90
18225;DHT22;9237;48.590;8.854;2023-10-08T08:05:48;15.80;99.90
18225;DHT22;9237;48.590;8.854;2023-10-08T08:08:19;15.80;99.90
18225;DHT22;9237;48.590;8.854;2023-10-08T08:10:48;15.90;99.90
18225;DHT22;9237;48.590;8.854;2023-10-08T08:13:15;15.70;99.90
18225;DHT22;9237;48.590;8.854;2023-10-08T08:15:47;15.50;99.90
18225;DHT22;9237;48.590;8.854;2023-10-08T08:18:16;15.50;99.90
18225;DHT22;9237;48.590;8.854;2023-10-08T08:20:48;15.60;99.90
18225;DHT22;9237;48.590;8.854;2023-10-08T08:23:15;15.90;99.90
18225;DHT22;9237;48.590;8.854;2023-10-08T08:25:43;16.00;99.90
18225;DHT22;9237;48.590;8.854;2023-10-08T08:28:21;16.00;99.90
18225;DHT22;9237;48.590;8.854;2023-10-08T08:30:51;16.00;99.90
18225;DHT22;9237;48.590;8.854;2023-10-08T08:33:21;16.00;99.90
18225;DHT22;9237;48.590;8.854;2023-10-08T08:35:58;16.10;99.90
18225;DHT22;9237;48.590;8.854;2023-10-08T08:38:26;16.50;99.90
18225;DHT22;9237;48.590;8.854;2023-10-08T08:41:02;17.40;99.90
18225;DHT22;9237;48.590;8.854;2023-10-08T08:43:33;18.30;99.90
18225;DHT22;9237;48.590;8.854;2023-10-08T08:46:03;19.00;99.90
18225;DHT22;9237;48.590;8.854;2023-10-08T08:48:33;19.50;99.90
18225;DHT22;9237;48.590;8.854;2023-10-08T08:51:01;19.80;99.90
18225;DHT22;9237;48.590;8.854;2023-10-08T08:53:28;20.50;99.90
18225;DHT22;9237;48.590;8.854;2023-10-08T08:55:55;21.10;99.90
18225;DHT22;9237;48.590;8.854;2023-10-08T08:58:23;21.60;99.90
18225;DHT22;9237;48.590;8.854;2023-10-08T09:00:52;21.00;99.90
18225;DHT22;9237;48.590;8.854;2023-10-08T09:03:21;20.80;99.90
18225;DHT22;9237;48.590;8.854;2023-10-08T09:05:56;21.30;99.90
18225;DHT22;9237;48.590;8.854;2023-10-08T09:08:22;21.80;99.90
18225;DHT22;9237;48.590;8.854;2023-10-08T09:10:57;22.00;99.50
18225;DHT22;9237;48.590;8.854;2023-10-08T09:13:27;22.50;99.20
18225;DHT22;9237;48.590;8.854;2023-10-08T09:15:57;22.50;98.10
18225;DHT22;9237;48.590;8.854;2023-10-08T09:18:25;22.80;98.60
18225;DHT22;9237;48.590;8.854;2023-10-08T09:20:53;22.90;98.20
18225;DHT22;9237;48.590;8.854;2023-10-08T09:23:20;22.90;97.10
18225;DHT22;9237;48.590;8.854;2023-10-08T09:25:49;23.00;97.70
18225;DHT22;9237;48.590;8.854;2023-10-08T09:28:19;22.90;97.20
18225;DHT22;9237;48.590;8.854;2023-10-08T09:30:47;22.70;97.20
18225;DHT22;9237;48.590;8.854;2023-10-08T09:33:14;22.70;97.60
18225;DHT22;9237;48.590;8.854;2023-10-08T09:35:46;22.60;97.10
18225;DHT22;9237;48.590;8.854;2023-10-08T09:38:12;22.60;96.90
18225;DHT22;9237;48.590;8.854;2023-10-08T09:40:41;22.70;96.30
18225;DHT22;9237;48.590;8.854;2023-10-08T09:43:10;22.70;96.00
18225;DHT22;9237;48.590;8.854;2023-10-08T09:45:38;22.80;95.20
18225;DHT22;9237;48.590;8.854;2023-10-08T09:48:10;23.00;95.50
18225;DHT22;9237;48.590;8.854;2023-10-08T09:50:40;23.20;95.70
18225;DHT22;9237;48.590;8.854;2023-10-08T09:53:09;23.30;94.80
18225;DHT22;9237;48.590;8.854;2023-10-08T09:55:47;23.40;94.60
18225;DHT22;9237;48.590;8.854;2023-10-08T09:58:16;23.50;94.10
18225;DHT22;9237;48.590;8.854;2023-10-08T10:00:44;24.00;94.10
18225;DHT22;9237;48.590;8.854;2023-10-08T10:03:14;24.20;92.30
18225;DHT22;9237;48.590;8.854;2023-10-08T10:05:43;23.90;93.10
18225;DHT22;9237;48.590;8.854;2023-10-08T10:08:11;23.70;91.80
18225;DHT22;9237;48.590;8.854;2023-10-08T10:10:38;23.40;92.40
18225;DHT22;9237;48.590;8.854;2023-10-08T10:13:09;23.20;92.40
18225;DHT22;9237;48.590;8.854;2023-10-08T10:15:37;23.20;92.90
18225;DHT22;9237;48.590;8.854;2023-10-08T10:18:13;23.10;92.20
18225;DHT22;9237;48.590;8.854;2023-10-08T10:20:44;23.30;92.10
18225;DHT22;9237;48.590;8.854;2023-10-08T10:23:37;23.30;91.70
18225;DHT22;9237;48.590;8.854;2023-10-08T10:26:05;23.50;91.80
18225;DHT22;9237;48.590;8.854;2023-10-08T10:29:17;23.60;91.80
18225;DHT22;9237;48.590;8.854;2023-10-08T10:31:46;23.70;90.80
18225;DHT22;9237;48.590;8.854;2023-10-08T10:34:14;23.80;90.70
18225;DHT22;9237;48.590;8.854;2023-10-08T10:36:42;23.90;90.50
18225;DHT22;9237;48.590;8.854;2023-10-08T10:39:17;23.90;90.00
18225;DHT22;9237;48.590;8.854;2023-10-08T10:41:52;23.90;89.70
18225;DHT22;9237;48.590;8.854;2023-10-08T10:44:23;23.90;89.00
18225;DHT22;9237;48.590;8.854;2023-10-08T10:46:49;24.00;89.00
18225;DHT22;9237;48.590;8.854;2023-10-08T10:49:17;24.10;89.90
18225;DHT22;9237;48.590;8.854;2023-10-08T10:51:49;24.20;88.00
18225;DHT22;9237;48.590;8.854;2023-10-08T10:54:24;24.40;87.80
18225;DHT22;9237;48.590;8.854;2023-10-08T10:56:50;24.60;86.20
18225;DHT22;9237;48.590;8.854;2023-10-08T10:59:29;24.60;86.20
18225;DHT22;9237;48.590;8.854;2023-10-08T11:02:02;24.60;86.10
18225;DHT22;9237;48.590;8.854;2023-10-08T11:04:32;24.60;85.30
18225;DHT22;9237;48.590;8.854;2023-10-08T11:07:01;24.70;84.90
18225;DHT22;9237;48.590;8.854;2023-10-08T11:09:33;24.90;85.40
18225;DHT22;9237;48.590;8.854;2023-10-08T11:12:06;25.20;84.10
18225;DHT22;9237;48.590;8.854;2023-10-08T11:14:37;25.50;80.60
18225;DHT22;9237;48.590;8.854;2023-10-08T11:17:11;25.70;79.60
18225;DHT22;9237;48.590;8.854;2023-10-08T11:19:37;25.80;81.00
18225;DHT22;9237;48.590;8.854;2023-10-08T11:22:04;25.80;78.70
18225;DHT22;9237;48.590;8.854;2023-10-08T11:24:33;25.90;78.40
18225;DHT22;9237;48.590;8.854;2023-10-08T11:27:00;25.80;76.50
18225;DHT22;9237;48.590;8.854;2023-10-08T11:29:41;26.10;75.70
18225;DHT22;9237;48.590;8.854;2023-10-08T11:32:09;26.40;73.20
18225;DHT22;9237;48.590;8.854;2023-10-08T11:34:38;26.70;72.10
18225;DHT22;9237;48.590;8.854;2023-10-08T11:37:05;26.70;69.80
18225;DHT22;9237;48.590;8.854;2023-10-08T11:39:46;26.70;69.40
18225;DHT22;9237;48.590;8.854;2023-10-08T11:42:14;26.40;68.90
18225;DHT22;9237;48.590;8.854;2023-10-08T11:45:06;26.20;70.40
18225;DHT22;9237;48.590;8.854;2023-10-08T11:47:44;25.90;68.60
18225;DHT22;9237;48.590;8.854;2023-10-08T11:50:14;25.80;68.00
18225;DHT22;9237;48.590;8.854;2023-10-08T11:52:45;25.80;66.70
18225;DHT22;9237;48.590;8.854;2023-10-08T11:55:13;25.90;66.90
18225;DHT22;9237;48.590;8.854;2023-10-08T11:57:45;25.90;67.80
18225;DHT22;9237;48.590;8.854;2023-10-08T12:00:15;26.10;67.70
18225;DHT22;9237;48.590;8.854;2023-10-08T12:02:45;26.10;65.80
18225;DHT22;9237;48.590;8.854;2023-10-08T12:05:12;26.00;66.40
18225;DHT22;9237;48.590;8.854;2023-10-08T12:07:45;26.00;67.90
18225;DHT22;9237;48.590;8.854;2023-10-08T12:10:13;26.00;67.10
18225;DHT22;9237;48.590;8.854;2023-10-08T12:12:42;26.10;66.80
18225;DHT22;9237;48.590;8.854;2023-10-08T12:15:11;25.90;66.30
18225;DHT22;9237;48.590;8.854;2023-10-08T12:17:48;25.90;69.40
18225;DHT22;9237;48.590;8.854;2023-10-08T12:20:35;25.60;67.70
18225;DHT22;9237;48.590;8.854;2023-10-08T12:23:03;25.90;68.10
18225;DHT22;9237;48.590;8.854;2023-10-08T12:25:31;25.90;65.90
18225;DHT22;9237;48.590;8.854;2023-10-08T12:27:59;26.00;64.40
18225;DHT22;9237;48.590;8.854;2023-10-08T12:30:28;25.90;65.40
18225;DHT22;9237;48.590;8.854;2023-10-08T12:32:57;25.90;63.60
18225;DHT22;9237;48.590;8.854;2023-10-08T12:35:25;25.90;64.20
18225;DHT22;9237;48.590;8.854;2023-10-08T12:37:52;25.80;63.20
18225;DHT22;9237;48.590;8.854;2023-10-08T12:40:19;26.00;64.90
18225;DHT22;9237;48.590;8.854;2023-10-08T12:42:50;26.10;63.40
18225;DHT22;9237;48.590;8.854;2023-10-08T12:45:18;26.30;63.10
18225;DHT22;9237;48.590;8.854;2023-10-08T12:47:48;26.40;63.50
18225;DHT22;9237;48.590;8.854;2023-10-08T12:50:16;26.50;64.30
18225;DHT22;9237;48.590;8.854;2023-10-08T12:52:49;26.40;62.50
18225;DHT22;9237;48.590;8.854;2023-10-08T12:55:21;26.40;62.70
18225;DHT22;9237;48.590;8.854;2023-10-08T12:57:51;26.30;62.90
18225;DHT22;9237;48.590;8.854;2023-10-08T13:00:22;26.40;62.50
18225;DHT22;9237;48.590;8.854;2023-10-08T13:02:50;26.60;60.80
18225;DHT22;9237;48.590;8.854;2023-10-08T13:05:20;26.70;62.10
18225;DHT22;9237;48.590;8.854;2023-10-08T13:07:53;26.80;61.40
18225;DHT22;9237;48.590;8.854;2023-10-08T13:10:21;26.80;61.50
18225;DHT22;9237;48.590;8.854;2023-10-08T13:12:48;26.90;60.20
18225;DHT22;9237;48.590;8.854;2023-10-08T13:15:16;26.80;59.80
18225;DHT22;9237;48.590;8.854;2023-10-08T13:17:44;27.40;59.80
18225;DHT22;9237;48.590;8.854;2023-10-08T13:20:12;28.30;57.90
18225;DHT22;9237;48.590;8.854;2023-10-08T13:22:38;29.00;56.40
18225;DHT22;9237;48.590;8.854;2023-10-08T13:25:06;30.20;55.00
18225;DHT22;9237;48.590;8.854;2023-10-08T13:27:34;31.10;53.60
18225;DHT22;9237;48.590;8.854;2023-10-08T13:30:06;31.60;52.60
18225;DHT22;9237;48.590;8.854;2023-10-08T13:32:35;32.10;51.70
18225;DHT22;9237;48.590;8.854;2023-10-08T13:35:03;32.30;51.70
18225;DHT22;9237;48.590;8.854;2023-10-08T13:37:33;32.30;51.30
18225;DHT22;9237;48.590;8.854;2023-10-08T13:40:00;32.30;51.40
18225;DHT22;9237;48.590;8.854;2023-10-08T13:42:27;32.60;50.30
18225;DHT22;9237;48.590;8.854;2023-10-08T13:44:55;32.60;49.00
18225;DHT22;9237;48.590;8.854;2023-10-08T13:47:23;31.70;49.60
18225;DHT22;9237;48.590;8.854;2023-10-08T13:49:52;32.20;50.10
18225;DHT22;9237;48.590;8.854;2023-10-08T13:52:20;32.70;49.60
18225;DHT22;9237;48.590;8.854;2023-10-08T13:54:51;33.30;49.30
18225;DHT22;9237;48.590;8.854;2023-10-08T13:57:18;32.70;47.10
18225;DHT22;9237;48.590;8.854;2023-10-08T13:59:45;32.60;47.10
18225;DHT22;9237;48.590;8.854;2023-10-08T14:02:13;32.50;47.30
18225;DHT22;9237;48.590;8.854;2023-10-08T14:04:41;32.30;46.90
18225;DHT22;9237;48.590;8.854;2023-10-08T14:07:10;31.70;47.70
18225;DHT22;9237;48.590;8.854;2023-10-08T14:09:42;31.90;48.20
18225;DHT22;9237;48.590;8.854;2023-10-08T14:12:11;31.30;47.60
18225;DHT22;9237;48.590;8.854;2023-10-08T14:14:39;31.00;49.40
18225;DHT22;9237;48.590;8.854;2023-10-08T14:17:09;31.90;48.70
18225;DHT22;9237;48.590;8.854;2023-10-08T14:19:40;32.40;46.70
18225;DHT22;9237;48.590;8.854;2023-10-08T14:22:13;32.60;45.70
18225;DHT22;9237;48.590;8.854;2023-10-08T14:24:40;33.00;45.80
18225;DHT22;9237;48.590;8.854;2023-10-08T14:27:10;33.10;44.70
18225;DHT22;9237;48.590;8.854;2023-10-08T14:29:37;33.00;45.60
18225;DHT22;9237;48.590;8.854;2023-10-08T14:32:06;32.20;44.90
18225;DHT22;9237;48.590;8.854;2023-10-08T14:34:35;32.20;46.50
18225;DHT22;9237;48.590;8.854;2023-10-08T14:37:21;32.80;46.50
18225;DHT22;9237;48.590;8.854;2023-10-08T14:40:06;33.40;45.80
18225;DHT22;9237;48.590;8.854;2023-10-08T14:42:51;33.50;45.50
18225;DHT22;9237;48.590;8.854;2023-10-08T14:45:22;33.50;43.40
18225;DHT22;9237;48.590;8.854;2023-10-08T14:47:52;33.10;43.90
18225;DHT22;9237;48.590;8.854;2023-10-08T14:50:20;32.70;43.80
18225;DHT22;9237;48.590;8.854;2023-10-08T14:52:49;32.40;43.50
18225;DHT22;9237;48.590;8.854;2023-10-08T14:55:16;32.40;44.50
18225;DHT22;9237;48.590;8.854;2023-10-08T14:57:42;32.20;44.30
18225;DHT22;9237;48.590;8.854;2023-10-08T15:00:10;31.90;44.00
18225;DHT22;9237;48.590;8.854;2023-10-08T15:02:37;32.00;45.20
18225;DHT22;9237;48.590;8.854;2023-10-08T15:05:04;31.90;45.00
18225;DHT22;9237;48.590;8.854;2023-10-08T15:07:32;31.70;45.00
18225;DHT22;9237;48.590;8.854;2023-10-08T15:10:00;31.40;45.70
18225;DHT22;9237;48.590;8.854;2023-10-08T15:12:27;31.10;45.50
18225;DHT22;9237;48.590;8.854;2023-10-08T15:14:54;31.20;47.70
18225;DHT22;9237;48.590;8.854;2023-10-08T15:17:22;31.20;48.50
18225;DHT22;9237;48.590;8.854;2023-10-08T15:19:49;31.10;48.00
18225;DHT22;9237;48.590;8.854;2023-10-08T15:22:17;31.20;45.10
18225;DHT22;9237;48.590;8.854;2023-10-08T15:24:43;31.00;44.60
18225;DHT22;9237;48.590;8.854;2023-10-08T15:27:12;30.90;45.10
18225;DHT22;9237;48.590;8.854;2023-10-08T15:29:38;30.80;46.40
18225;DHT22;9237;48.590;8.854;2023-10-08T15:32:05;30.60;45.00
18225;DHT22;9237;48.590;8.854;2023-10-08T15:34:32;30.10;45.20
18225;DHT22;9237;48.590;8.854;2023-10-08T15:36:59;29.80;46.80
18225;DHT22;9237;48.590;8.854;2023-10-08T15:39:26;29.70;48.40
18225;DHT22;9237;48.590;8.854;2023-10-08T15:41:54;29.30;46.00
18225;DHT22;9237;48.590;8.854;2023-10-08T15:44:23;28.60;47.10
18225;DHT22;9237;48.590;8.854;2023-10-08T15:46:50;28.50;51.00
18225;DHT22;9237;48.590;8.854;2023-10-08T15:49:17;28.00;48.90
18225;DHT22;9237;48.590;8.854;2023-10-08T15:51:45;27.40;49.40
18225;DHT22;9237;48.590;8.854;2023-10-08T15:54:12;27.30;50.90
18225;DHT22;9237;48.590;8.854;2023-10-08T15:56:39;26.90;51.60
18225;DHT22;9237;48.590;8.854;2023-10-08T15:59:05;26.60;51.80
18225;DHT22;9237;48.590;8.854;2023-10-08T16:01:34;26.20;52.00
18225;DHT22;9237;48.590;8.854;2023-10-08T16:04:00;26.00;52.50
18225;DHT22;9237;48.590;8.854;2023-10-08T16:06:27;25.70;54.10
18225;DHT22;9237;48.590;8.854;2023-10-08T16:08:54;25.30;56.10
18225;DHT22;9237;48.590;8.854;2023-10-08T16:11:21;25.00;58.60
18225;DHT22;9237;48.590;8.854;2023-10-08T16:13:48;24.60;60.00
18225;DHT22;9237;48.590;8.854;2023-10-08T16:16:14;24.20;61.70